createdAt,value
2023-02-06T00:03:12.902Z,102184.38
2023-02-06T00:08:14.840Z,102173.16
2023-02-06T00:13:16.888Z,102175.41
2023-02-06T00:18:18.575Z,102163.44
2023-02-06T00:23:20.261Z,102159.47
2023-02-06T00:28:22.181Z,102165.47
2023-02-06T00:33:24.641Z,102175.59
2023-02-06T00:38:26.440Z,102167.56
2023-02-06T00:43:28.138Z,102160.59
2023-02-06T00:48:31.607Z,102165.72
2023-02-06T00:53:33.755Z,102168.75
2023-02-06T00:58:35.501Z,102162.94
2023-02-06T01:03:38.031Z,102166.31
2023-02-06T01:08:39.658Z,102163.34
2023-02-06T01:13:42.289Z,102176.06
2023-02-06T01:18:43.996Z,102162.28
2023-02-06T01:23:46.934Z,102162.72
2023-02-06T01:28:49.085Z,102151.06
2023-02-06T01:33:51.810Z,102149.34
2023-02-06T01:38:53.600Z,102154.41
2023-02-06T01:44:14.878Z,102172.31
2023-02-06T01:49:27.632Z,102171.00
2023-02-06T01:54:31.694Z,102175.59
2023-02-06T01:59:34.631Z,102181.78
2023-02-06T02:04:36.409Z,102196.72
2023-02-06T02:09:38.229Z,102215.03
2023-02-06T02:14:42.562Z,102198.59
2023-02-06T02:19:59.480Z,102178.63
2023-02-06T02:25:30.466Z,102167.22
2023-02-06T02:30:41.307Z,102169.34
2023-02-06T02:35:42.957Z,102147.34
2023-02-06T02:40:56.089Z,102135.03
2023-02-06T02:46:09.074Z,102122.00
2023-02-06T02:51:11.679Z,102109.66
2023-02-06T02:56:17.456Z,102106.50
2023-02-06T03:01:24.582Z,102097.25
2023-02-06T03:06:40.402Z,102096.94
2023-02-06T03:11:50.786Z,102097.56
2023-02-06T03:16:58.107Z,102091.81
2023-02-06T03:22:00.964Z,102087.28
2023-02-06T03:27:08.628Z,102086.59
2023-02-06T03:32:32.370Z,102092.47
2023-02-06T03:37:35.722Z,102091.13
2023-02-06T03:42:42.458Z,102090.25
2023-02-06T03:47:46.547Z,102098.06
2023-02-06T03:52:51.113Z,102103.63
2023-02-06T03:58:01.473Z,102109.50
2023-02-06T04:03:04.805Z,102096.50
2023-02-06T04:08:07.252Z,102095.00
2023-02-06T04:13:09.006Z,102088.59
2023-02-06T04:18:10.700Z,102084.38
2023-02-06T04:23:12.361Z,102083.69
2023-02-06T04:28:14.378Z,102071.91
2023-02-06T04:33:16.519Z,102099.41
2023-02-06T04:38:18.750Z,102083.19
2023-02-06T04:43:22.104Z,102092.56
2023-02-06T04:48:25.986Z,102101.22
2023-02-06T04:53:29.775Z,102106.63
2023-02-06T04:58:31.548Z,102131.00
2023-02-06T05:03:33.507Z,102131.91
2023-02-06T05:08:39.770Z,102131.56
2023-02-06T05:13:42.436Z,102127.84
2023-02-06T05:18:46.670Z,102115.22
2023-02-06T05:23:48.410Z,102096.75
2023-02-06T05:28:50.138Z,102099.31
2023-02-06T05:33:52.690Z,102112.25
2023-02-06T05:38:54.744Z,102118.34
2023-02-06T05:43:56.451Z,102117.06
2023-02-06T05:48:58.743Z,102104.94
2023-02-06T05:54:00.971Z,102107.00
2023-02-06T05:59:02.694Z,102108.09
2023-02-06T06:04:04.504Z,102092.13
2023-02-06T06:09:06.288Z,102099.22
2023-02-06T06:14:08.478Z,102097.16
2023-02-06T06:19:10.275Z,102095.84
2023-02-06T06:24:11.946Z,102086.47
2023-02-06T06:29:13.770Z,102090.34
2023-02-06T06:34:15.470Z,102096.72
2023-02-06T06:44:45.055Z,102098.66
2023-02-06T06:49:46.746Z,102104.38
2023-02-06T06:54:48.522Z,102104.97
2023-02-06T06:59:50.983Z,102096.28
2023-02-06T07:04:52.658Z,102103.13
2023-02-06T07:09:54.349Z,102113.44
2023-02-06T07:14:55.998Z,102108.50
2023-02-06T07:19:57.679Z,102100.00
2023-02-06T07:24:59.326Z,102090.69
2023-02-06T07:30:01.006Z,102084.66
2023-02-06T07:35:03.074Z,102093.22
2023-02-06T07:40:05.680Z,102082.81
2023-02-06T07:45:07.708Z,102079.28
2023-02-06T07:50:10.240Z,102083.00
2023-02-06T07:55:12.050Z,102074.88
2023-02-06T08:00:14.365Z,102082.13
2023-02-06T08:05:16.125Z,102086.03
2023-02-06T08:10:17.960Z,102097.81
2023-02-06T08:15:19.585Z,102094.53
2023-02-06T08:20:21.247Z,102093.41
2023-02-06T08:25:22.963Z,102093.16
2023-02-06T08:30:24.846Z,102099.94
2023-02-06T08:35:26.639Z,102101.97
2023-02-06T08:40:28.313Z,102103.22
2023-02-06T08:45:29.935Z,102082.47
2023-02-06T08:50:31.580Z,102082.78
2023-02-06T08:55:33.267Z,102068.66
2023-02-06T09:00:35.020Z,102062.69
2023-02-06T09:05:36.962Z,102054.22
2023-02-06T09:10:38.881Z,102045.16
2023-02-06T09:15:41.508Z,102038.06
2023-02-06T09:20:43.221Z,102036.28
2023-02-06T09:25:45.662Z,102046.59
2023-02-06T09:30:47.441Z,102057.41
2023-02-06T09:35:49.163Z,102057.53
2023-02-06T09:40:53.296Z,102073.53
2023-02-06T09:46:04.629Z,102073.44
2023-02-06T09:51:45.110Z,102070.53
2023-02-06T09:56:49.646Z,102080.22
2023-02-06T10:02:13.076Z,102073.84
2023-02-06T10:07:17.570Z,102072.78
2023-02-06T10:12:35.876Z,102048.97
2023-02-06T10:18:01.188Z,102037.69
2023-02-06T10:23:23.796Z,102038.16
2023-02-06T10:28:28.723Z,102037.59
2023-02-06T10:33:56.387Z,102029.38
2023-02-06T10:39:25.995Z,102032.47
2023-02-06T10:44:39.128Z,102030.75
2023-02-06T10:49:55.372Z,102037.44
2023-02-06T10:54:59.470Z,102054.56
2023-02-06T11:00:03.509Z,102068.13
2023-02-06T11:05:16.136Z,102058.41
2023-02-06T11:10:20.697Z,102056.88
2023-02-06T11:15:27.466Z,102051.34
2023-02-06T11:20:33.288Z,102026.66
2023-02-06T11:25:35.485Z,102013.69
2023-02-06T11:30:41.335Z,102012.69
2023-02-06T11:35:55.475Z,102024.94
2023-02-06T11:41:01.519Z,102025.81
2023-02-06T11:46:26.845Z,102029.97
2023-02-06T11:51:54.001Z,102024.84
2023-02-06T11:57:01.952Z,102030.38
2023-02-06T12:02:25.191Z,102021.63
2023-02-06T12:07:47.147Z,102028.59
2023-02-06T12:12:56.314Z,102016.50
2023-02-06T12:18:03.988Z,102015.72
2023-02-06T12:23:14.810Z,102013.63
2023-02-06T12:28:38.658Z,102017.56
2023-02-06T12:33:47.839Z,102002.94
2023-02-06T12:39:11.750Z,102006.44
2023-02-06T12:44:40.812Z,102000.19
2023-02-06T12:50:13.739Z,102003.28
2023-02-06T12:55:23.465Z,101996.84
2023-02-06T13:00:38.195Z,102000.34
2023-02-06T13:05:44.344Z,101991.53
2023-02-06T13:10:58.370Z,101978.28
2023-02-06T13:16:00.686Z,101976.88
2023-02-06T13:21:20.933Z,101980.00
2023-02-06T13:26:56.495Z,101977.19
2023-02-06T13:32:20.844Z,101968.41
2023-02-06T13:37:33.618Z,101973.91
2023-02-06T13:42:58.339Z,101984.06
2023-02-06T13:48:06.013Z,101988.53
2023-02-06T13:53:16.705Z,101997.13
2023-02-06T13:58:41.056Z,101998.91
2023-02-06T14:03:46.075Z,102012.00
2023-02-06T14:09:06.504Z,102024.47
2023-02-06T14:14:27.360Z,102018.16
2023-02-06T14:19:44.363Z,102025.53
2023-02-06T14:25:10.719Z,102024.84
2023-02-06T14:30:50.781Z,102033.88
2023-02-06T14:36:08.679Z,102034.75
2023-02-06T14:41:11.002Z,102038.84
2023-02-06T14:46:15.764Z,102041.72
2023-02-06T14:51:20.364Z,102044.56
2023-02-06T14:56:28.725Z,102050.34
2023-02-06T15:01:32.796Z,102067.00
2023-02-06T15:06:37.714Z,102059.59
2023-02-06T15:11:39.752Z,102074.25
2023-02-06T15:16:49.330Z,102101.94
2023-02-06T15:22:01.645Z,102106.16
2023-02-06T15:27:18.570Z,102119.06
2023-02-06T15:32:38.593Z,102123.84
2023-02-06T15:37:40.443Z,102123.38
2023-02-06T15:42:42.502Z,102140.13
2023-02-06T15:47:46.077Z,102145.84
2023-02-06T15:52:48.240Z,102141.44
2023-02-06T15:57:51.597Z,102156.53
2023-02-06T16:03:05.028Z,102153.72
2023-02-06T16:08:22.325Z,102160.66
2023-02-06T16:13:26.038Z,102177.25
2023-02-06T16:18:34.270Z,102181.19
2023-02-06T16:24:03.180Z,102182.16
2023-02-06T16:29:10.829Z,102193.59
2023-02-06T16:34:35.152Z,102194.25
2023-02-06T16:39:36.879Z,102190.72
2023-02-06T16:44:44.749Z,102196.09
2023-02-06T16:49:52.042Z,102188.78
2023-02-06T16:54:59.046Z,102189.50
2023-02-06T17:00:02.135Z,102198.38
2023-02-06T17:05:05.015Z,102211.94
2023-02-06T17:10:08.050Z,102212.28
2023-02-06T17:15:11.973Z,102222.41
2023-02-06T17:20:37.209Z,102219.03
2023-02-06T17:25:40.688Z,102224.75
2023-02-06T17:30:42.524Z,102233.63
2023-02-06T17:35:47.225Z,102244.00
2023-02-06T17:40:49.172Z,102247.03
2023-02-06T17:45:50.961Z,102236.09
2023-02-06T17:50:52.841Z,102240.34
2023-02-06T17:55:54.538Z,102251.81
2023-02-06T18:00:56.244Z,102259.47
2023-02-06T18:06:01.985Z,102256.19
2023-02-06T18:11:11.703Z,102250.75
2023-02-06T18:16:26.158Z,102252.22
2023-02-06T18:21:30.450Z,102269.41
2023-02-06T18:26:35.624Z,102288.34
2023-02-06T18:31:38.091Z,102275.22
2023-02-06T18:36:39.857Z,102272.50
2023-02-06T18:42:00.538Z,102262.91
2023-02-06T18:47:02.307Z,102269.59
2023-02-06T18:52:05.234Z,102267.22
2023-02-06T18:57:07.304Z,102273.59
2023-02-06T19:02:10.883Z,102256.91
2023-02-06T19:07:13.752Z,102259.75
2023-02-06T19:12:15.498Z,102260.16
2023-02-06T19:17:17.257Z,102251.69
2023-02-06T19:22:19.001Z,102247.31
2023-02-06T19:27:21.646Z,102251.19
2023-02-06T19:32:26.000Z,102264.41
2023-02-06T19:37:27.755Z,102272.91
2023-02-06T19:42:29.468Z,102294.56
2023-02-06T19:47:31.172Z,102305.47
2023-02-06T19:52:35.252Z,102339.47
2023-02-06T19:57:39.631Z,102344.81
2023-02-06T20:02:41.574Z,102359.63
2023-02-06T20:07:43.278Z,102351.47
2023-02-06T20:12:45.226Z,102346.03
2023-02-06T20:17:46.902Z,102373.94
2023-02-06T20:22:48.612Z,102391.00
2023-02-06T20:27:50.381Z,102398.56
2023-02-06T20:32:52.138Z,102390.03
2023-02-06T20:37:53.866Z,102400.31
2023-02-06T20:42:55.612Z,102404.47
2023-02-06T20:47:57.350Z,102403.59
2023-02-06T20:52:59.182Z,102392.13
2023-02-06T20:58:00.832Z,102395.16
2023-02-06T21:03:02.646Z,102388.06
2023-02-06T21:08:04.584Z,102374.00
2023-02-06T21:13:06.398Z,102379.81
2023-02-06T21:18:08.186Z,102375.13
2023-02-06T21:23:10.327Z,102380.59
2023-02-06T21:28:12.154Z,102382.84
2023-02-06T21:33:13.887Z,102383.78
2023-02-06T21:38:15.753Z,102374.69
2023-02-06T21:43:17.549Z,102382.50
2023-02-06T21:48:19.287Z,102375.84
2023-02-06T21:53:21.853Z,102380.97
2023-02-06T21:58:23.523Z,102391.31
2023-02-06T22:03:25.444Z,102398.31
2023-02-06T22:08:27.117Z,102393.41
2023-02-06T22:13:28.902Z,102391.50
2023-02-06T22:18:30.558Z,102381.28
2023-02-06T22:23:32.484Z,102386.72
2023-02-06T22:28:34.593Z,102395.13
2023-02-06T22:33:36.973Z,102394.16
2023-02-06T22:38:39.485Z,102397.44
2023-02-06T22:43:41.897Z,102393.19
2023-02-06T22:48:43.643Z,102390.84
2023-02-06T22:53:45.659Z,102399.47
2023-02-06T22:58:48.783Z,102395.50
2023-02-06T23:03:54.688Z,102404.44
2023-02-06T23:08:57.799Z,102400.31
2023-02-06T23:14:05.880Z,102384.78
2023-02-06T23:19:08.280Z,102382.31
2023-02-06T23:24:10.769Z,102393.00
2023-02-06T23:29:17.770Z,102400.13
2023-02-06T23:34:20.569Z,102403.97
2023-02-06T23:39:22.212Z,102410.88
2023-02-06T23:44:23.867Z,102411.94
2023-02-06T23:49:25.482Z,102415.91
2023-02-06T23:54:27.105Z,102409.97
2023-02-06T23:59:28.791Z,102419.81
